Time;durP1;ratioP1;P1;durP2;ratioP2;P2;SDS_P1;SDS_P2;PMS_P1;PMS_P2;Temp;Humidity;BMP_temperature;BMP_pressure;BME280_temperature;BME280_humidity;BME280_pressure;Samples;Min_cycle;Max_cycle;Signal;HPM_P1;HPM_P2
2021/01/05 00:00:13;;;;;;;39.70;15.90;;;2.10;99.90;;;;;;5042757;28;20359;-55
2021/01/05 00:02:39;;;;;;;39.80;15.50;;;2.10;99.90;;;;;;5042933;28;20207;-57
2021/01/05 00:05:07;;;;;;;42.67;16.07;;;2.10;99.90;;;;;;5042544;28;20256;-57
2021/01/05 00:07:34;;;;;;;42.17;16.80;;;2.00;99.90;;;;;;5042639;28;20207;-57
2021/01/05 00:10:00;;;;;;;40.83;16.37;;;2.10;99.90;;;;;;5042968;28;20300;-57
2021/01/05 00:12:28;;;;;;;39.57;16.47;;;2.10;99.90;;;;;;5042423;28;20199;-58
2021/01/05 00:14:54;;;;;;;36.47;14.60;;;2.10;99.90;;;;;;5041384;28;20195;-58
2021/01/05 00:17:24;;;;;;;39.53;16.60;;;2.00;99.90;;;;;;5042406;28;20245;-59
2021/01/05 00:19:51;;;;;;;33.20;14.00;;;2.00;99.90;;;;;;5039725;28;20281;-59
2021/01/05 00:22:18;;;;;;;38.17;16.13;;;2.00;99.90;;;;;;5042715;28;20303;-53
2021/01/05 00:24:44;;;;;;;36.40;16.73;;;2.10;99.90;;;;;;5040825;28;21515;-56
2021/01/05 00:27:11;;;;;;;35.30;16.33;;;2.10;99.90;;;;;;5039532;28;20610;-57
2021/01/05 00:29:39;;;;;;;34.50;15.37;;;2.10;99.90;;;;;;5042430;28;20272;-55
2021/01/05 00:32:09;;;;;;;36.47;15.53;;;2.10;99.90;;;;;;5040325;28;20306;-54
2021/01/05 00:34:35;;;;;;;36.27;15.80;;;2.10;99.90;;;;;;5038049;28;20265;-56
2021/01/05 00:37:02;;;;;;;32.33;13.70;;;2.10;99.90;;;;;;5039568;28;20232;-56
2021/01/05 00:39:28;;;;;;;31.90;13.67;;;2.10;99.90;;;;;;5038551;28;20284;-57
2021/01/05 00:41:54;;;;;;;35.50;14.87;;;2.10;99.90;;;;;;5040476;28;20210;-57
2021/01/05 00:44:21;;;;;;;34.83;15.17;;;2.10;99.90;;;;;;5047297;28;20203;-59
2021/01/05 00:46:48;;;;;;;34.97;14.07;;;2.10;99.90;;;;;;5047827;28;20229;-56
2021/01/05 00:49:15;;;;;;;33.07;13.90;;;2.20;99.90;;;;;;5049302;28;20719;-56
2021/01/05 00:51:41;;;;;;;34.13;15.53;;;2.20;99.90;;;;;;5048548;28;20229;-57
2021/01/05 00:54:08;;;;;;;30.63;13.57;;;2.20;99.90;;;;;;5049383;28;20199;-57
2021/01/05 00:56:34;;;;;;;30.17;12.80;;;2.10;99.90;;;;;;5045090;28;20199;-55
2021/01/05 00:59:00;;;;;;;32.30;14.33;;;2.10;99.90;;;;;;5049609;28;20223;-58
2021/01/05 01:01:26;;;;;;;28.87;13.27;;;2.10;99.90;;;;;;5043890;28;20207;-57
2021/01/05 01:03:54;;;;;;;28.67;12.20;;;2.10;99.90;;;;;;5049715;28;20205;-57
2021/01/05 01:06:20;;;;;;;23.73;11.07;;;2.10;99.90;;;;;;5044599;28;20219;-54
2021/01/05 01:08:47;;;;;;;34.17;15.10;;;2.10;99.90;;;;;;5048706;28;20306;-58
2021/01/05 01:11:15;;;;;;;27.47;12.13;;;2.30;99.90;;;;;;5045371;28;20816;-56
2021/01/05 01:13:41;;;;;;;29.17;12.77;;;2.10;99.90;;;;;;5046348;28;20203;-54
2021/01/05 01:16:08;;;;;;;29.60;13.30;;;2.10;99.90;;;;;;5043459;28;20229;-59
2021/01/05 01:18:34;;;;;;;28.77;12.57;;;2.10;99.90;;;;;;5048211;28;20233;-56
2021/01/05 01:21:02;;;;;;;27.40;12.37;;;2.10;99.90;;;;;;5043319;28;20218;-56
2021/01/05 01:23:28;;;;;;;32.57;13.13;;;2.10;99.90;;;;;;5044615;28;20207;-56
2021/01/05 01:25:55;;;;;;;26.43;11.77;;;2.10;99.90;;;;;;5049834;28;20234;-57
2021/01/05 01:28:21;;;;;;;28.87;12.63;;;2.10;99.90;;;;;;5049209;28;20222;-60
2021/01/05 01:30:47;;;;;;;27.30;12.20;;;2.10;99.90;;;;;;5044034;28;20201;-57
2021/01/05 01:33:14;;;;;;;28.33;12.77;;;2.10;99.90;;;;;;5050343;28;20727;-58
2021/01/05 01:35:40;;;;;;;28.03;12.43;;;2.10;99.90;;;;;;5049342;28;20297;-59
2021/01/05 01:38:07;;;;;;;27.93;12.83;;;2.10;99.90;;;;;;5048829;28;20206;-57
2021/01/05 01:40:36;;;;;;;28.03;12.80;;;2.10;99.90;;;;;;5049821;28;20211;-57
2021/01/05 01:43:03;;;;;;;31.90;14.27;;;2.10;99.90;;;;;;5049765;28;20198;-57
2021/01/05 01:45:30;;;;;;;26.43;11.73;;;2.10;99.90;;;;;;5051708;28;20226;-56
2021/01/05 01:47:57;;;;;;;29.70;12.23;;;2.10;99.90;;;;;;5048874;28;20203;-51
2021/01/05 01:50:27;;;;;;;26.17;12.10;;;2.10;99.90;;;;;;5049411;28;20209;-57
2021/01/05 01:53:30;;;;;;;26.83;12.30;;;2.10;99.90;;;;;;5049795;28;20237;-54
2021/01/05 01:56:10;;;;;;;29.53;12.73;;;2.10;99.90;;;;;;5044105;28;20213;-55
2021/01/05 01:58:55;;;;;;;27.97;13.50;;;2.10;99.90;;;;;;5053680;28;20276;-55
2021/01/05 02:01:42;;;;;;;28.67;12.83;;;2.10;99.90;;;;;;5052373;28;20653;-58
2021/01/05 02:04:47;;;;;;;29.47;13.23;;;2.70;99.90;;;;;;5053618;28;20202;-56
2021/01/05 02:07:36;;;;;;;27.67;11.90;;;2.20;99.90;;;;;;5017029;28;20228;-57
2021/01/05 02:10:31;;;;;;;24.40;11.43;;;2.20;99.90;;;;;;5052539;28;20712;-54
2021/01/05 02:13:08;;;;;;;31.10;13.17;;;2.20;99.90;;;;;;5052814;28;20264;-60
2021/01/05 02:15:43;;;;;;;29.43;12.53;;;2.20;99.90;;;;;;5052327;28;20198;-58
2021/01/05 02:18:39;;;;;;;32.70;14.47;;;2.20;99.90;;;;;;5052502;28;20214;-59
2021/01/05 02:21:11;;;;;;;30.17;12.53;;;2.20;99.90;;;;;;5044821;28;20583;-53
2021/01/05 02:23:52;;;;;;;29.97;13.33;;;2.20;99.90;;;;;;5051806;28;20199;-57
2021/01/05 02:26:23;;;;;;;28.97;11.27;;;2.20;99.90;;;;;;5053580;28;20218;-57
2021/01/05 02:28:55;;;;;;;28.60;12.47;;;2.10;99.90;;;;;;5053753;28;20228;-56
2021/01/05 02:31:50;;;;;;;28.83;11.20;;;2.10;99.90;;;;;;5053852;28;20826;-55
2021/01/05 02:34:39;;;;;;;31.43;12.83;;;2.10;99.90;;;;;;5051881;28;20210;-58
2021/01/05 02:37:17;;;;;;;27.93;11.13;;;2.10;99.90;;;;;;5053948;28;20210;-56
2021/01/05 02:40:15;;;;;;;30.13;12.63;;;2.10;99.90;;;;;;5053790;28;20237;-59
2021/01/05 02:43:03;;;;;;;32.30;12.20;;;2.10;99.90;;;;;;5039797;28;20199;-54
2021/01/05 02:45:33;;;;;;;32.33;12.50;;;2.10;99.90;;;;;;5050811;28;20233;-57
2021/01/05 02:48:32;;;;;;;31.13;12.60;;;2.10;99.90;;;;;;5053061;28;20681;-59
2021/01/05 02:51:31;;;;;;;34.87;12.23;;;2.10;99.90;;;;;;5047067;28;20196;-59
2021/01/05 02:54:33;;;;;;;32.47;13.10;;;2.10;99.90;;;;;;5050621;28;20835;-58
2021/01/05 02:57:14;;;;;;;34.33;13.97;;;2.10;99.90;;;;;;5052229;28;20202;-58
2021/01/05 03:00:08;;;;;;;31.60;13.10;;;2.10;99.90;;;;;;5045421;28;20230;-58
2021/01/05 03:02:56;;;;;;;29.47;11.53;;;2.10;99.90;;;;;;5050481;28;20199;-60
2021/01/05 03:05:23;;;;;;;35.60;13.80;;;2.10;99.90;;;;;;5052718;28;20217;-59
2021/01/05 03:07:50;;;;;;;31.73;14.23;;;2.10;99.90;;;;;;5052903;28;20203;-56
2021/01/05 03:10:31;;;;;;;34.83;13.87;;;2.10;99.90;;;;;;5053121;28;20233;-59
2021/01/05 03:13:24;;;;;;;34.20;13.77;;;2.10;99.90;;;;;;5051724;28;20267;-58
2021/01/05 03:15:56;;;;;;;36.50;15.10;;;2.10;99.90;;;;;;5054104;28;20287;-58
2021/01/05 03:18:31;;;;;;;28.87;12.43;;;2.20;99.90;;;;;;5062503;28;20229;-60
2021/01/05 03:21:01;;;;;;;30.23;12.33;;;2.10;99.90;;;;;;5052968;28;20198;-58
2021/01/05 03:23:30;;;;;;;33.87;13.83;;;2.10;99.90;;;;;;5052896;28;20207;-57
2021/01/05 03:26:00;;;;;;;33.90;14.37;;;2.10;99.90;;;;;;5052810;28;20709;-58
2021/01/05 03:28:29;;;;;;;31.73;14.80;;;2.10;99.90;;;;;;5051850;28;20223;-52
2021/01/05 03:30:59;;;;;;;31.70;12.53;;;2.10;99.90;;;;;;5052993;28;20209;-58
2021/01/05 03:33:26;;;;;;;37.53;15.13;;;2.10;99.90;;;;;;5052688;28;20211;-53
2021/01/05 03:35:52;;;;;;;34.83;14.80;;;2.10;99.90;;;;;;5052839;28;20194;-58
2021/01/05 03:38:18;;;;;;;38.40;15.40;;;2.10;99.90;;;;;;5052010;28;20222;-59
2021/01/05 03:40:45;;;;;;;34.83;15.13;;;2.10;99.90;;;;;;5047287;28;20217;-58
2021/01/05 03:43:11;;;;;;;33.83;15.27;;;2.10;99.90;;;;;;5054314;28;20573;-55
2021/01/05 03:45:37;;;;;;;34.67;15.17;;;2.20;99.90;;;;;;5051871;28;20219;-56
2021/01/05 03:48:06;;;;;;;33.33;14.27;;;2.10;99.90;;;;;;5051265;28;20298;-59
2021/01/05 03:50:32;;;;;;;31.00;14.03;;;2.10;99.90;;;;;;5040509;28;20265;-57
2021/01/05 03:52:58;;;;;;;32.60;13.47;;;2.10;99.90;;;;;;5054682;28;20215;-57
2021/01/05 03:55:25;;;;;;;33.33;13.73;;;2.10;99.90;;;;;;5051014;28;20853;-54
2021/01/05 03:57:51;;;;;;;30.73;12.97;;;2.10;99.90;;;;;;5051888;28;20211;-59
2021/01/05 04:00:24;;;;;;;34.17;14.80;;;2.20;99.90;;;;;;5052675;28;20226;-59
2021/01/05 04:02:50;;;;;;;32.73;12.73;;;2.10;99.90;;;;;;5052178;28;20290;-55
2021/01/05 04:05:18;;;;;;;30.23;12.30;;;2.10;99.90;;;;;;5052201;28;20214;-57
2021/01/05 04:07:44;;;;;;;33.63;15.53;;;2.10;99.90;;;;;;5051756;28;20234;-53
2021/01/05 04:10:11;;;;;;;31.97;14.27;;;2.10;99.90;;;;;;5052043;28;20222;-55
2021/01/05 04:12:38;;;;;;;32.40;13.83;;;2.10;99.90;;;;;;5052004;28;20217;-58
2021/01/05 04:15:06;;;;;;;33.27;14.63;;;2.10;99.90;;;;;;5047821;28;20203;-59
2021/01/05 04:17:33;;;;;;;32.07;13.30;;;2.10;99.90;;;;;;5058448;28;20896;-56
2021/01/05 04:19:59;;;;;;;33.53;14.20;;;2.10;99.90;;;;;;5049153;28;20329;-58
2021/01/05 04:22:26;;;;;;;32.63;13.50;;;2.10;99.90;;;;;;5051634;28;20195;-54
2021/01/05 04:24:52;;;;;;;38.40;15.17;;;2.10;99.90;;;;;;5052266;28;20278;-56
2021/01/05 04:27:19;;;;;;;39.77;14.80;;;2.10;99.90;;;;;;5051150;28;20261;-58
2021/01/05 04:29:45;;;;;;;35.20;15.43;;;2.10;99.90;;;;;;5051599;28;20704;-56
2021/01/05 04:32:11;;;;;;;40.07;15.03;;;2.10;99.90;;;;;;5051765;28;20211;-60
2021/01/05 04:34:38;;;;;;;40.20;14.17;;;2.10;99.90;;;;;;5051454;28;20209;-59
2021/01/05 04:37:04;;;;;;;41.93;17.10;;;2.10;99.90;;;;;;5051401;28;20298;-59
2021/01/05 04:39:31;;;;;;;39.57;16.10;;;2.10;99.90;;;;;;5048702;28;20226;-54
2021/01/05 04:42:04;;;;;;;40.17;15.60;;;2.10;99.90;;;;;;5051116;28;20229;-59
2021/01/05 04:44:38;;;;;;;38.60;16.70;;;2.20;99.90;;;;;;5050907;28;20209;-55
2021/01/05 04:47:18;;;;;;;38.57;17.17;;;2.10;99.90;;;;;;5051226;28;20233;-60
2021/01/05 04:50:11;;;;;;;41.00;18.20;;;2.10;99.90;;;;;;5051236;28;20766;-53
2021/01/05 04:52:55;;;;;;;38.40;14.70;;;2.10;99.90;;;;;;5049917;28;20615;-56
2021/01/05 04:55:39;;;;;;;37.27;13.93;;;2.10;99.90;;;;;;5051369;28;20294;-58
2021/01/05 04:58:11;;;;;;;44.10;17.03;;;2.10;99.90;;;;;;5049427;28;20237;-55
2021/01/05 05:00:39;;;;;;;40.83;15.83;;;2.10;99.90;;;;;;5045829;28;20981;-53
2021/01/05 05:03:14;;;;;;;38.83;14.80;;;2.10;99.90;;;;;;5051186;28;20215;-56
2021/01/05 05:05:52;;;;;;;43.40;17.40;;;2.10;99.90;;;;;;5045460;28;20598;-56
2021/01/05 05:08:37;;;;;;;36.27;14.83;;;2.10;99.90;;;;;;5049476;28;20772;-54
2021/01/05 05:11:07;;;;;;;40.27;16.87;;;2.10;99.90;;;;;;5048716;28;20199;-57
2021/01/05 05:13:47;;;;;;;39.97;16.03;;;2.10;99.90;;;;;;5048980;28;20215;-57
2021/01/05 05:16:40;;;;;;;37.67;14.67;;;2.10;99.90;;;;;;5050369;28;20203;-55
2021/01/05 05:19:20;;;;;;;37.07;14.70;;;2.10;99.90;;;;;;5051135;28;20229;-58
2021/01/05 05:21:51;;;;;;;37.00;15.07;;;2.20;99.90;;;;;;5050992;28;20294;-56
2021/01/05 05:24:34;;;;;;;35.30;15.40;;;2.10;99.90;;;;;;5046845;28;20205;-56
2021/01/05 05:27:14;;;;;;;37.90;16.77;;;2.10;99.90;;;;;;5049713;28;20218;-56
2021/01/05 05:29:46;;;;;;;40.53;17.07;;;2.20;99.90;;;;;;5051016;28;20305;-54
2021/01/05 05:32:22;;;;;;;38.33;16.83;;;2.10;99.90;;;;;;5049998;28;20206;-55
2021/01/05 05:34:56;;;;;;;43.87;18.70;;;2.10;99.90;;;;;;5056960;28;20205;-54
2021/01/05 05:37:33;;;;;;;43.33;16.93;;;2.10;99.90;;;;;;5060251;28;20662;-60
2021/01/05 05:40:19;;;;;;;38.77;15.10;;;2.20;99.90;;;;;;5050474;28;20235;-58
2021/01/05 05:43:23;;;;;;;39.00;15.40;;;2.10;99.90;;;;;;5039838;28;20205;-57
2021/01/05 05:45:54;;;;;;;33.23;13.63;;;2.10;99.90;;;;;;5049378;28;20219;-57
2021/01/05 05:48:30;;;;;;;41.83;17.17;;;2.10;99.90;;;;;;5057982;28;20628;-58
2021/01/05 05:51:06;;;;;;;34.60;14.87;;;2.10;99.90;;;;;;5071020;28;20212;-52
2021/01/05 05:53:39;;;;;;;33.57;14.30;;;2.10;99.90;;;;;;5064297;28;20576;-56
2021/01/05 05:56:11;;;;;;;38.70;14.23;;;2.10;99.90;;;;;;5070768;28;20205;-57
2021/01/05 05:58:41;;;;;;;41.13;17.70;;;2.10;99.90;;;;;;5055186;28;20757;-58
2021/01/05 06:01:11;;;;;;;45.03;17.60;;;2.10;99.90;;;;;;5057833;28;20210;-57
2021/01/05 06:03:37;;;;;;;35.33;15.30;;;2.10;99.90;;;;;;5064653;28;20203;-54
2021/01/05 06:06:04;;;;;;;41.17;16.73;;;2.10;99.90;;;;;;5070649;28;20214;-60
2021/01/05 06:08:31;;;;;;;36.20;14.17;;;2.10;99.90;;;;;;5064548;28;20225;-58
2021/01/05 06:10:57;;;;;;;43.30;16.47;;;2.10;99.90;;;;;;5062758;28;20234;-56
2021/01/05 06:13:24;;;;;;;36.80;15.70;;;2.10;99.90;;;;;;5070613;28;20198;-52
2021/01/05 06:15:51;;;;;;;36.07;13.93;;;2.10;99.90;;;;;;5062630;28;20227;-55
2021/01/05 06:18:18;;;;;;;36.30;14.57;;;2.10;99.90;;;;;;5070485;28;20226;-55
2021/01/05 06:20:45;;;;;;;34.43;16.13;;;2.10;99.90;;;;;;5063595;28;20199;-60
2021/01/05 06:23:11;;;;;;;35.90;15.13;;;2.10;99.90;;;;;;5067538;28;20217;-56
2021/01/05 06:25:38;;;;;;;39.97;16.07;;;2.10;99.90;;;;;;5070467;28;20232;-57
2021/01/05 06:28:05;;;;;;;33.00;13.90;;;2.10;99.90;;;;;;5051971;28;20299;-58
2021/01/05 06:30:32;;;;;;;41.23;15.20;;;2.10;99.90;;;;;;5051693;28;20202;-59
2021/01/05 06:32:59;;;;;;;34.77;14.67;;;2.10;99.90;;;;;;5048937;28;20218;-57
2021/01/05 06:35:25;;;;;;;35.93;15.30;;;2.10;99.90;;;;;;5050393;28;20195;-58
2021/01/05 06:37:53;;;;;;;38.70;16.07;;;2.10;99.90;;;;;;5050022;28;20721;-60
2021/01/05 06:40:21;;;;;;;37.90;15.37;;;2.20;99.90;;;;;;5049636;28;20230;-55
2021/01/05 06:42:47;;;;;;;34.53;14.50;;;2.10;99.90;;;;;;5050921;28;20294;-59
2021/01/05 06:45:17;;;;;;;36.67;15.30;;;2.20;99.90;;;;;;5053800;28;20266;-59
2021/01/05 06:47:43;;;;;;;35.60;16.53;;;2.20;99.90;;;;;;5053916;28;20590;-58
2021/01/05 06:50:12;;;;;;;34.67;15.53;;;2.20;99.90;;;;;;5053611;28;20227;-56
2021/01/05 06:52:38;;;;;;;41.63;15.27;;;2.20;99.90;;;;;;5055475;28;20545;-56
2021/01/05 06:57:40;;;;;;;39.37;15.13;;;2.20;99.90;;;;;;5103619;22;20230;-59
2021/01/05 07:00:13;;;;;;;36.60;15.63;;;2.20;99.90;;;;;;5076356;28;20668;-59
2021/01/05 07:02:39;;;;;;;29.70;12.97;;;2.20;99.90;;;;;;5077031;28;20207;-60
2021/01/05 07:05:07;;;;;;;34.67;15.50;;;2.20;99.90;;;;;;5071104;28;20297;-56
2021/01/05 07:07:34;;;;;;;39.40;16.10;;;2.20;99.90;;;;;;5064704;28;20224;-60
2021/01/05 07:10:00;;;;;;;36.37;14.17;;;2.20;99.90;;;;;;5076541;28;20216;-59
2021/01/05 07:12:27;;;;;;;35.47;15.23;;;2.20;99.90;;;;;;5076249;28;20203;-60
2021/01/05 07:14:53;;;;;;;32.03;14.17;;;2.20;99.90;;;;;;5076093;28;20800;-59
2021/01/05 07:17:19;;;;;;;31.27;13.60;;;2.30;99.90;;;;;;5075965;28;20244;-60
2021/01/05 07:19:45;;;;;;;32.00;14.63;;;2.20;99.90;;;;;;5071934;28;20199;-57
2021/01/05 07:22:12;;;;;;;29.47;11.80;;;2.20;99.90;;;;;;5064000;28;20202;-60
2021/01/05 07:24:39;;;;;;;30.93;12.40;;;2.20;99.90;;;;;;5073897;28;20199;-59
2021/01/05 07:27:06;;;;;;;30.40;12.77;;;2.20;99.90;;;;;;5075701;28;20910;-58
2021/01/05 07:29:32;;;;;;;32.13;12.73;;;2.20;99.90;;;;;;5075881;28;20202;-58
2021/01/05 07:31:58;;;;;;;28.37;12.30;;;2.30;99.90;;;;;;5067313;28;20260;-60
2021/01/05 07:34:24;;;;;;;32.60;13.37;;;2.30;99.90;;;;;;5076185;28;20700;-60
2021/01/05 07:36:56;;;;;;;30.13;12.33;;;2.30;99.90;;;;;;5075395;28;20225;-60
2021/01/05 07:39:26;;;;;;;30.77;12.07;;;2.30;99.90;;;;;;5075709;28;20198;-59
2021/01/05 07:42:10;;;;;;;29.40;12.63;;;2.30;99.90;;;;;;5076209;28;20206;-58
2021/01/05 07:44:36;;;;;;;30.93;11.23;;;2.30;99.90;;;;;;5061297;28;20278;-58
2021/01/05 07:47:03;;;;;;;31.20;12.70;;;2.30;99.90;;;;;;5069820;28;20730;-60
2021/01/05 07:49:29;;;;;;;32.77;14.43;;;2.30;99.90;;;;;;5071311;28;20645;-60
2021/01/05 07:51:55;;;;;;;32.93;14.27;;;2.30;99.90;;;;;;5074102;28;20263;-58
2021/01/05 07:54:22;;;;;;;28.80;12.87;;;2.30;99.90;;;;;;5073442;28;20210;-60
2021/01/05 07:56:48;;;;;;;36.03;13.70;;;2.30;99.90;;;;;;5065247;28;21004;-61
2021/01/05 07:59:16;;;;;;;31.57;11.90;;;2.30;99.90;;;;;;5071191;28;20213;-59
2021/01/05 08:01:42;;;;;;;34.13;12.57;;;2.30;99.90;;;;;;5067712;28;20697;-57
2021/01/05 08:04:08;;;;;;;36.17;13.70;;;2.30;99.90;;;;;;5074425;28;20206;-60
2021/01/05 08:06:35;;;;;;;34.27;14.73;;;2.30;99.90;;;;;;5073599;28;20312;-58
2021/01/05 08:09:01;;;;;;;32.50;13.70;;;2.30;99.90;;;;;;5074244;28;20629;-59
2021/01/05 08:11:35;;;;;;;33.10;13.60;;;2.20;99.90;;;;;;5071824;28;20219;-59
2021/01/05 08:14:01;;;;;;;32.07;13.27;;;2.10;99.90;;;;;;5073373;28;20240;-59
2021/01/05 08:16:28;;;;;;;32.23;13.50;;;2.20;99.90;;;;;;5071725;28;20246;-58
2021/01/05 08:18:55;;;;;;;27.87;12.43;;;2.20;99.90;;;;;;5073486;28;20668;-59
2021/01/05 08:21:23;;;;;;;34.30;14.53;;;2.20;99.90;;;;;;5068963;28;20203;-60
2021/01/05 08:23:49;;;;;;;35.20;13.27;;;2.30;99.90;;;;;;5073537;28;20734;-59
2021/01/05 08:26:15;;;;;;;32.93;12.47;;;2.30;99.90;;;;;;5072708;28;20684;-61
2021/01/05 08:28:42;;;;;;;33.30;12.60;;;2.30;99.90;;;;;;5073697;28;20301;-57
2021/01/05 08:31:08;;;;;;;33.60;13.53;;;2.30;99.90;;;;;;5073276;28;20288;-60
2021/01/05 08:33:35;;;;;;;33.93;13.77;;;2.40;99.90;;;;;;5072888;28;20334;-60
2021/01/05 08:36:02;;;;;;;33.17;13.47;;;2.30;99.90;;;;;;5073363;28;20256;-58
2021/01/05 08:38:28;;;;;;;34.80;12.03;;;2.30;99.90;;;;;;5072075;28;20225;-58
2021/01/05 08:40:54;;;;;;;34.13;13.13;;;2.30;99.90;;;;;;5073489;28;20199;-60
2021/01/05 08:43:22;;;;;;;33.87;13.23;;;2.30;99.90;;;;;;5073578;28;20744;-57
2021/01/05 08:45:48;;;;;;;34.67;13.93;;;2.40;99.90;;;;;;5073547;28;20726;-60
2021/01/05 08:48:14;;;;;;;32.77;13.10;;;2.40;99.90;;;;;;5073604;28;20255;-57
2021/01/05 08:50:41;;;;;;;35.83;13.27;;;2.30;99.90;;;;;;5072936;28;20213;-57
2021/01/05 08:53:11;;;;;;;36.37;13.70;;;2.30;99.90;;;;;;5073803;28;20664;-58
2021/01/05 08:55:38;;;;;;;33.60;13.50;;;2.30;99.90;;;;;;5073308;28;20895;-58
2021/01/05 08:58:05;;;;;;;31.47;13.30;;;2.40;99.90;;;;;;5072647;28;20208;-59
2021/01/05 09:00:31;;;;;;;35.97;14.57;;;2.50;99.90;;;;;;5067595;28;20253;-60
2021/01/05 09:02:57;;;;;;;33.33;13.87;;;2.40;99.90;;;;;;5073242;28;20194;-59
2021/01/05 09:05:24;;;;;;;34.80;13.37;;;2.40;99.90;;;;;;5068729;28;20229;-59
2021/01/05 09:07:51;;;;;;;38.00;14.17;;;2.40;99.90;;;;;;5072699;28;21010;-58
2021/01/05 09:10:22;;;;;;;36.10;15.20;;;2.40;99.90;;;;;;5066225;28;20267;-58
2021/01/05 09:12:48;;;;;;;35.53;14.53;;;2.40;99.90;;;;;;5069008;28;20198;-57
2021/01/05 09:15:17;;;;;;;29.30;11.67;;;2.40;99.90;;;;;;5073661;28;20293;-59
2021/01/05 09:17:44;;;;;;;34.17;14.77;;;2.40;99.90;;;;;;5073199;28;20210;-59
2021/01/05 09:20:14;;;;;;;36.27;13.20;;;2.40;99.90;;;;;;5067520;28;20210;-58
2021/01/05 09:22:41;;;;;;;34.53;13.20;;;2.40;99.90;;;;;;5067455;28;20209;-59
2021/01/05 09:25:09;;;;;;;36.20;14.37;;;2.50;99.90;;;;;;5073809;28;20206;-58
2021/01/05 09:27:35;;;;;;;31.93;13.10;;;2.50;99.90;;;;;;5072839;28;20225;-58
2021/01/05 09:30:02;;;;;;;40.70;15.50;;;2.50;99.90;;;;;;5062659;28;20209;-57
2021/01/05 09:32:33;;;;;;;39.30;14.57;;;2.50;99.90;;;;;;5072718;28;20586;-60
2021/01/05 09:35:00;;;;;;;36.47;14.17;;;2.50;99.90;;;;;;5072618;28;20639;-59
2021/01/05 09:37:26;;;;;;;37.33;15.93;;;2.60;99.90;;;;;;5072557;28;20285;-56
2021/01/05 09:39:52;;;;;;;36.83;14.53;;;2.50;99.90;;;;;;5073220;28;20254;-55
2021/01/05 09:42:19;;;;;;;41.47;17.30;;;2.50;99.90;;;;;;5072514;28;20198;-60
2021/01/05 09:44:46;;;;;;;39.27;15.70;;;2.60;99.90;;;;;;5073490;28;20198;-60
2021/01/05 09:47:17;;;;;;;39.60;14.90;;;2.50;99.90;;;;;;5064623;28;20219;-59
2021/01/05 09:49:43;;;;;;;39.57;15.17;;;2.50;99.90;;;;;;5069259;28;20202;-58
2021/01/05 09:52:09;;;;;;;45.87;17.13;;;2.60;99.90;;;;;;5072255;28;20587;-60
2021/01/05 09:54:36;;;;;;;38.50;15.10;;;2.60;99.90;;;;;;5072322;28;20247;-58
2021/01/05 09:57:02;;;;;;;43.17;16.53;;;2.60;99.90;;;;;;5066871;28;20247;-59
2021/01/05 09:59:30;;;;;;;39.20;15.33;;;2.60;99.90;;;;;;5070323;28;20201;-59
2021/01/05 10:02:01;;;;;;;43.27;16.63;;;2.60;99.90;;;;;;5072055;28;20228;-58
2021/01/05 10:04:27;;;;;;;43.60;19.20;;;2.60;99.90;;;;;;5069576;28;20198;-56
2021/01/05 10:06:54;;;;;;;43.03;18.13;;;2.60;99.90;;;;;;5072484;28;20656;-56
2021/01/05 10:09:20;;;;;;;39.83;16.97;;;2.60;99.90;;;;;;5070237;28;20208;-57
2021/01/05 10:11:47;;;;;;;37.20;16.13;;;2.70;99.90;;;;;;5069327;28;20571;-59
2021/01/05 10:14:16;;;;;;;42.93;17.20;;;2.60;99.90;;;;;;5073547;28;20634;-57
2021/01/05 10:16:44;;;;;;;42.37;17.17;;;2.70;99.90;;;;;;5072073;28;20218;-60
2021/01/05 10:19:11;;;;;;;42.63;17.63;;;2.70;99.90;;;;;;5075208;28;20210;-56
2021/01/05 10:21:39;;;;;;;39.27;16.40;;;2.70;99.90;;;;;;5072339;28;20684;-57
2021/01/05 10:24:08;;;;;;;44.57;17.83;;;2.70;99.90;;;;;;5077185;28;20260;-59
2021/01/05 10:26:34;;;;;;;41.27;17.07;;;2.70;99.90;;;;;;5072694;28;20222;-59
2021/01/05 10:29:01;;;;;;;39.50;17.00;;;2.70;99.90;;;;;;5076561;28;20289;-58
2021/01/05 10:31:35;;;;;;;39.53;18.00;;;2.70;99.90;;;;;;5075587;28;20739;-60
2021/01/05 10:34:03;;;;;;;44.10;18.83;;;2.70;99.90;;;;;;5070942;28;20225;-59
2021/01/05 10:36:30;;;;;;;42.37;16.60;;;2.70;99.90;;;;;;5076028;28;20228;-59
2021/01/05 10:38:56;;;;;;;38.00;18.57;;;2.80;99.90;;;;;;5076048;28;20202;-61
2021/01/05 10:41:22;;;;;;;40.23;18.07;;;2.80;99.90;;;;;;5076134;28;20288;-60
2021/01/05 10:43:49;;;;;;;36.93;16.43;;;2.80;99.90;;;;;;5074612;28;20617;-60
2021/01/05 10:46:18;;;;;;;39.13;16.70;;;2.70;99.90;;;;;;5069592;28;20735;-60
2021/01/05 10:48:45;;;;;;;38.57;17.57;;;2.80;99.90;;;;;;5075388;28;20206;-60
2021/01/05 10:51:12;;;;;;;41.50;16.10;;;2.80;99.90;;;;;;5075242;28;20202;-60
2021/01/05 10:53:38;;;;;;;39.23;16.40;;;2.80;99.90;;;;;;5071257;28;20264;-60
2021/01/05 10:56:05;;;;;;;38.97;16.73;;;2.80;99.90;;;;;;5071457;28;20716;-59
2021/01/05 10:58:31;;;;;;;34.87;13.20;;;2.80;99.90;;;;;;5074700;28;20684;-60
2021/01/05 11:00:57;;;;;;;42.70;17.07;;;2.80;99.90;;;;;;5074026;28;20204;-60
2021/01/05 11:03:24;;;;;;;36.30;15.87;;;2.80;99.90;;;;;;5071931;28;20206;-61
2021/01/05 11:05:50;;;;;;;41.07;17.73;;;2.90;99.90;;;;;;5074750;28;20222;-60
2021/01/05 11:08:17;;;;;;;36.97;14.83;;;2.90;99.90;;;;;;5074451;28;20218;-60
2021/01/05 11:10:43;;;;;;;40.43;16.73;;;2.90;99.90;;;;;;5075133;28;20202;-60
2021/01/05 11:13:10;;;;;;;40.33;17.03;;;2.90;99.90;;;;;;5067363;28;20641;-59
2021/01/05 11:15:36;;;;;;;41.23;17.70;;;2.80;99.90;;;;;;5070665;28;20722;-59
2021/01/05 11:18:02;;;;;;;34.10;13.47;;;2.90;99.90;;;;;;5069052;28;20191;-60
2021/01/05 11:20:29;;;;;;;29.33;13.30;;;2.90;99.90;;;;;;5075134;28;20206;-59
2021/01/05 11:22:55;;;;;;;35.40;13.03;;;2.90;99.90;;;;;;5074125;28;20675;-56
2021/01/05 11:25:22;;;;;;;30.83;13.00;;;2.90;99.90;;;;;;5074632;28;20681;-57
2021/01/05 11:27:50;;;;;;;31.60;13.83;;;2.90;99.90;;;;;;5073956;28;20616;-60
2021/01/05 11:30:22;;;;;;;30.37;12.77;;;3.00;99.90;;;;;;5073536;28;20213;-59
2021/01/05 11:32:49;;;;;;;29.70;12.57;;;2.90;99.90;;;;;;5074551;28;20199;-58
2021/01/05 11:35:16;;;;;;;28.87;12.63;;;2.90;99.90;;;;;;5074068;28;20202;-59
2021/01/05 11:37:43;;;;;;;28.80;13.47;;;2.90;99.90;;;;;;5073626;28;20247;-58
2021/01/05 11:40:11;;;;;;;31.20;13.57;;;2.90;99.90;;;;;;5073667;28;20206;-60
2021/01/05 11:42:39;;;;;;;32.83;14.47;;;2.90;99.90;;;;;;5073812;28;20196;-59
2021/01/05 11:45:07;;;;;;;33.23;14.07;;;3.00;99.90;;;;;;5073827;28;20289;-60
2021/01/05 11:47:33;;;;;;;34.13;13.87;;;2.90;99.90;;;;;;5074159;28;20214;-59
2021/01/05 11:49:59;;;;;;;36.67;14.80;;;2.90;99.90;;;;;;5074842;28;20221;-56
2021/01/05 11:52:26;;;;;;;32.10;14.27;;;3.00;99.90;;;;;;5074221;28;20210;-57
2021/01/05 11:54:52;;;;;;;34.07;14.10;;;2.80;99.90;;;;;;5069747;28;20562;-55
2021/01/05 11:57:19;;;;;;;32.57;13.67;;;2.90;99.90;;;;;;5073254;28;20226;-59
2021/01/05 11:59:46;;;;;;;29.83;13.73;;;2.80;99.90;;;;;;5074407;28;20206;-59
2021/01/05 12:02:12;;;;;;;27.93;12.27;;;2.80;99.90;;;;;;5062501;28;20195;-59
2021/01/05 12:04:39;;;;;;;28.67;12.10;;;2.80;99.90;;;;;;5062458;28;20227;-58
2021/01/05 12:07:06;;;;;;;30.80;12.70;;;2.70;99.90;;;;;;5071773;28;20264;-58
2021/01/05 12:09:32;;;;;;;33.53;14.03;;;2.80;99.90;;;;;;5069766;28;20199;-61
2021/01/05 12:12:00;;;;;;;26.03;12.10;;;2.90;99.90;;;;;;5070360;28;20194;-60
2021/01/05 12:14:27;;;;;;;27.67;13.00;;;2.90;99.90;;;;;;5073628;28;20289;-56
2021/01/05 12:16:58;;;;;;;30.33;12.43;;;2.90;99.90;;;;;;5074609;28;20210;-56
2021/01/05 12:19:27;;;;;;;29.63;13.27;;;2.90;99.90;;;;;;5074831;28;20668;-61
2021/01/05 12:21:56;;;;;;;31.07;12.97;;;3.00;99.90;;;;;;5074106;28;20202;-57
2021/01/05 12:24:25;;;;;;;26.37;12.03;;;3.00;99.90;;;;;;5073464;28;20199;-58
2021/01/05 12:26:52;;;;;;;26.43;11.27;;;3.00;99.90;;;;;;5072830;28;20592;-56
2021/01/05 12:29:20;;;;;;;25.77;12.33;;;2.90;99.90;;;;;;5072762;28;20206;-59
2021/01/05 12:31:49;;;;;;;23.37;11.33;;;2.90;99.90;;;;;;5066940;28;20200;-58
2021/01/05 12:34:18;;;;;;;30.07;13.10;;;2.90;99.90;;;;;;5066474;28;20554;-56
2021/01/05 12:36:45;;;;;;;24.90;11.20;;;2.60;99.90;;;;;;5070793;28;20328;-59
2021/01/05 12:39:16;;;;;;;24.00;11.10;;;2.60;99.90;;;;;;5069801;28;20202;-55
2021/01/05 12:41:42;;;;;;;25.03;12.00;;;2.60;99.90;;;;;;5070839;28;20619;-58
2021/01/05 12:44:12;;;;;;;31.53;13.40;;;2.60;99.90;;;;;;5072324;28;20217;-58
2021/01/05 12:46:39;;;;;;;25.67;11.73;;;2.50;99.90;;;;;;5072022;28;20599;-56
2021/01/05 12:49:07;;;;;;;24.53;11.73;;;2.50;99.90;;;;;;5067948;28;20210;-58
2021/01/05 12:51:35;;;;;;;25.93;12.43;;;2.50;99.90;;;;;;5072472;28;20199;-55